createdAt,value
2016-10-03T00:00:18.899Z,81.92
2016-10-03T00:00:40.615Z,81.74
2016-10-03T00:01:02.337Z,81.50
2016-10-03T00:01:24.049Z,81.27
2016-10-03T00:01:45.767Z,81.45
2016-10-03T00:02:07.487Z,81.35
2016-10-03T00:02:29.217Z,81.44
2016-10-03T00:02:50.933Z,81.59
2016-10-03T00:03:12.655Z,81.59
2016-10-03T00:03:34.378Z,81.66
2016-10-03T00:03:56.092Z,81.64
2016-10-03T00:04:17.808Z,81.83
2016-10-03T00:04:39.531Z,81.72
2016-10-03T00:05:01.239Z,81.95
2016-10-03T00:05:23.014Z,81.99
2016-10-03T00:05:44.726Z,81.85
2016-10-03T00:06:06.455Z,81.92
2016-10-03T00:06:28.165Z,82.08
2016-10-03T00:06:49.871Z,82.18
2016-10-03T00:07:11.600Z,82.20
2016-10-03T00:07:33.319Z,82.25
2016-10-03T00:07:55.034Z,82.25
2016-10-03T00:08:16.744Z,82.35
2016-10-03T00:08:38.464Z,82.29
2016-10-03T00:09:00.182Z,82.11
2016-10-03T00:09:21.889Z,82.11
2016-10-03T00:09:43.610Z,82.18
2016-10-03T00:10:05.441Z,82.17
2016-10-03T00:10:27.244Z,82.23
2016-10-03T00:10:48.963Z,82.42
2016-10-03T00:11:10.682Z,82.27
2016-10-03T00:11:32.398Z,82.00
2016-10-03T00:11:54.115Z,82.25
2016-10-03T00:12:15.831Z,82.32
2016-10-03T00:12:37.543Z,82.09
2016-10-03T00:12:59.257Z,81.96
2016-10-03T00:13:20.967Z,82.20
2016-10-03T00:13:42.683Z,82.42
2016-10-03T00:14:04.397Z,82.25
2016-10-03T00:14:28.747Z,82.38
2016-10-03T00:14:50.464Z,82.52
2016-10-03T00:15:12.184Z,82.56
2016-10-03T00:15:33.904Z,82.57
2016-10-03T00:15:55.623Z,82.33
2016-10-03T00:16:17.331Z,82.54
2016-10-03T00:16:39.063Z,82.40
2016-10-03T00:17:00.780Z,82.54
2016-10-03T00:17:22.493Z,82.43
2016-10-03T00:17:44.204Z,82.27
2016-10-03T00:18:05.924Z,82.27
2016-10-03T00:18:27.641Z,82.84
2016-10-03T00:18:49.354Z,83.12
2016-10-03T00:19:11.073Z,82.99
2016-10-03T00:19:32.788Z,82.71
2016-10-03T00:19:54.503Z,82.85
2016-10-03T00:20:16.217Z,82.82
2016-10-03T00:20:37.949Z,82.89
2016-10-03T00:21:02.189Z,82.65
2016-10-03T00:21:23.921Z,82.63
2016-10-03T00:21:45.636Z,82.86
2016-10-03T00:22:07.351Z,83.13
2016-10-03T00:22:29.071Z,83.08
2016-10-03T00:22:50.793Z,83.12
2016-10-03T00:23:12.503Z,82.95
2016-10-03T00:23:34.223Z,83.07
2016-10-03T00:23:55.936Z,82.89
2016-10-03T00:24:17.652Z,82.74
2016-10-03T00:24:39.364Z,82.72
2016-10-03T00:25:01.081Z,82.69
2016-10-03T00:25:22.816Z,82.69
2016-10-03T00:25:44.529Z,82.65
2016-10-03T00:26:06.260Z,82.58
2016-10-03T00:26:28.003Z,82.58
2016-10-03T00:26:49.719Z,82.76
2016-10-03T00:27:11.431Z,82.71
2016-10-03T00:27:33.149Z,82.63
2016-10-03T00:27:54.866Z,82.53
2016-10-03T00:28:16.574Z,82.68
2016-10-03T00:28:38.292Z,82.92
2016-10-03T00:29:00.006Z,82.93
2016-10-03T00:29:21.714Z,82.83
2016-10-03T00:29:43.425Z,82.67
2016-10-03T00:30:05.143Z,83.18
2016-10-03T00:30:26.865Z,83.21
2016-10-03T00:30:48.587Z,83.01
2016-10-03T00:31:10.297Z,82.69
2016-10-03T00:31:32.013Z,82.67
2016-10-03T00:31:53.733Z,82.79
2016-10-03T00:32:15.457Z,82.89
2016-10-03T00:32:37.179Z,82.74
2016-10-03T00:32:58.895Z,82.93
2016-10-03T00:33:20.616Z,83.08
2016-10-03T00:33:42.337Z,83.26
2016-10-03T00:34:04.044Z,83.31
2016-10-03T00:34:25.777Z,83.20
2016-10-03T00:34:47.500Z,83.13
2016-10-03T00:35:09.214Z,83.33
2016-10-03T00:35:30.931Z,83.24
2016-10-03T00:35:52.665Z,83.09
2016-10-03T00:36:14.390Z,82.92
2016-10-03T00:36:36.108Z,82.87
2016-10-03T00:36:57.822Z,83.17
2016-10-03T00:37:19.539Z,82.99
2016-10-03T00:37:41.260Z,83.04
2016-10-03T00:38:02.965Z,83.42
2016-10-03T00:38:24.683Z,83.46
2016-10-03T00:38:46.392Z,83.30
2016-10-03T00:39:08.102Z,83.11
2016-10-03T00:39:29.823Z,83.10
2016-10-03T00:39:51.542Z,83.08
2016-10-03T00:40:13.337Z,82.83
2016-10-03T00:40:35.079Z,83.16
2016-10-03T00:40:56.782Z,83.53
2016-10-03T00:41:18.500Z,83.71
2016-10-03T00:41:40.222Z,83.53
2016-10-03T00:42:01.938Z,83.43
2016-10-03T00:42:23.659Z,83.60
2016-10-03T00:42:45.390Z,83.62
2016-10-03T00:43:07.113Z,83.50
2016-10-03T00:43:28.823Z,83.39
2016-10-03T00:43:50.535Z,83.64
2016-10-03T00:44:12.256Z,83.70
2016-10-03T00:44:33.982Z,83.77
2016-10-03T00:44:55.681Z,83.74
2016-10-03T00:45:17.399Z,83.78
2016-10-03T00:45:39.123Z,83.93
2016-10-03T00:46:00.831Z,84.39
2016-10-03T00:46:22.540Z,83.98
2016-10-03T00:46:44.263Z,83.67
2016-10-03T00:47:05.969Z,83.49
2016-10-03T00:47:27.692Z,83.52
2016-10-03T00:47:49.407Z,83.39
2016-10-03T00:48:11.137Z,83.28
2016-10-03T00:48:32.869Z,83.35
2016-10-03T00:48:59.349Z,83.63
2016-10-03T00:49:21.062Z,83.70
2016-10-03T00:49:42.775Z,83.62
2016-10-03T00:50:04.492Z,83.55
2016-10-03T00:51:02.731Z,83.22
2016-10-03T00:51:24.583Z,83.22
2016-10-03T00:51:46.293Z,83.21
2016-10-03T00:52:08.031Z,83.11
2016-10-03T00:52:29.748Z,83.32
2016-10-03T00:52:51.457Z,83.80
2016-10-03T00:53:13.172Z,83.77
2016-10-03T00:53:34.888Z,83.54
2016-10-03T00:53:56.598Z,83.85
2016-10-03T00:54:18.326Z,83.75
2016-10-03T00:54:40.046Z,83.56
2016-10-03T00:55:01.762Z,83.47
2016-10-03T00:55:23.479Z,83.66
2016-10-03T00:55:45.185Z,83.73
2016-10-03T00:56:06.904Z,83.66
2016-10-03T00:56:28.616Z,83.41
2016-10-03T00:56:50.332Z,83.31
2016-10-03T00:57:12.051Z,83.41
2016-10-03T00:57:33.762Z,83.69
2016-10-03T00:58:21.963Z,83.72
2016-10-03T00:58:43.681Z,83.76
2016-10-03T00:59:05.395Z,83.45
2016-10-03T00:59:27.110Z,83.33
2016-10-03T00:59:48.845Z,83.11
2016-10-03T01:00:10.567Z,83.18
2016-10-03T01:00:32.275Z,83.40
2016-10-03T01:00:53.994Z,83.25
2016-10-03T01:01:15.726Z,83.22
2016-10-03T01:01:37.457Z,83.37
2016-10-03T01:01:59.171Z,83.39
2016-10-03T01:02:20.900Z,83.54
2016-10-03T01:02:42.617Z,83.43
2016-10-03T01:03:04.341Z,83.69
2016-10-03T01:03:26.049Z,83.86
2016-10-03T01:03:47.768Z,83.85
2016-10-03T01:04:09.481Z,84.12
2016-10-03T01:04:31.192Z,83.87
2016-10-03T01:04:52.918Z,84.17
2016-10-03T01:05:14.633Z,84.21
2016-10-03T01:05:36.350Z,84.11
2016-10-03T01:05:58.060Z,83.94
2016-10-03T01:06:19.771Z,83.96
2016-10-03T01:06:41.481Z,84.10
2016-10-03T01:07:03.203Z,84.09
2016-10-03T01:07:24.919Z,84.28
2016-10-03T01:07:46.630Z,84.38
2016-10-03T01:08:08.341Z,84.10
2016-10-03T01:08:30.091Z,83.92
2016-10-03T01:08:51.807Z,83.79
2016-10-03T01:09:13.532Z,83.48
2016-10-03T01:09:35.251Z,83.69
2016-10-03T01:09:56.950Z,83.76
2016-10-03T01:10:18.668Z,83.73
2016-10-03T01:10:40.380Z,83.85
2016-10-03T01:11:02.099Z,84.06
2016-10-03T01:11:23.807Z,84.18
2016-10-03T01:11:45.520Z,84.52
2016-10-03T01:12:07.228Z,84.41
2016-10-03T01:12:28.942Z,84.18
2016-10-03T01:12:50.658Z,83.88
2016-10-03T01:13:12.366Z,84.10
2016-10-03T01:13:34.077Z,84.12
2016-10-03T01:13:55.786Z,84.08
2016-10-03T01:14:17.494Z,84.15
2016-10-03T01:14:39.210Z,84.07
2016-10-03T01:15:00.933Z,84.07
2016-10-03T01:15:22.683Z,84.18
2016-10-03T01:15:44.402Z,84.42
2016-10-03T01:16:06.114Z,84.42
2016-10-03T01:16:27.836Z,84.47
2016-10-03T01:16:49.542Z,84.51
2016-10-03T01:17:11.255Z,84.43
2016-10-03T01:17:32.964Z,84.46
2016-10-03T01:17:54.679Z,84.75
2016-10-03T01:18:16.393Z,84.85
2016-10-03T01:18:38.104Z,84.89
2016-10-03T01:18:59.823Z,84.51
2016-10-03T01:19:21.537Z,84.59
2016-10-03T01:19:43.256Z,84.63
2016-10-03T01:20:04.972Z,84.45
2016-10-03T01:20:26.690Z,84.44
2016-10-03T01:20:48.404Z,84.41
2016-10-03T01:21:10.121Z,84.32
2016-10-03T01:21:31.839Z,84.31
2016-10-03T01:21:53.564Z,84.49
2016-10-03T01:22:15.285Z,84.22
2016-10-03T01:22:36.983Z,84.17
2016-10-03T01:22:58.701Z,84.23
2016-10-03T01:23:20.419Z,84.32
2016-10-03T01:23:42.130Z,84.21
2016-10-03T01:24:03.844Z,83.98
2016-10-03T01:24:25.558Z,83.76
2016-10-03T01:24:47.260Z,83.75
2016-10-03T01:25:08.987Z,83.88
2016-10-03T01:25:30.711Z,84.03
2016-10-03T01:25:52.419Z,83.90
2016-10-03T01:26:14.140Z,83.77
2016-10-03T01:26:35.868Z,84.01
2016-10-03T01:26:57.591Z,84.22
2016-10-03T01:27:19.303Z,84.08
2016-10-03T01:27:41.010Z,84.25
2016-10-03T01:28:02.729Z,84.43
2016-10-03T01:28:24.440Z,84.30
2016-10-03T01:28:46.156Z,84.07
2016-10-03T01:29:07.870Z,83.98
2016-10-03T01:29:29.580Z,84.00
2016-10-03T01:29:51.292Z,84.21
2016-10-03T01:30:13.003Z,84.36
2016-10-03T01:30:34.716Z,84.50
2016-10-03T01:30:56.561Z,84.14
2016-10-03T01:31:18.269Z,83.87
2016-10-03T01:31:39.988Z,84.08
2016-10-03T01:32:01.696Z,84.53
2016-10-03T01:32:23.409Z,84.57
2016-10-03T01:32:45.129Z,84.80
2016-10-03T01:33:06.857Z,84.52
2016-10-03T01:33:28.571Z,84.44
2016-10-03T01:33:50.280Z,84.38
2016-10-03T01:34:11.995Z,84.44
2016-10-03T01:34:33.703Z,84.42
2016-10-03T01:34:55.421Z,84.41
2016-10-03T01:35:17.145Z,84.25
2016-10-03T01:35:38.858Z,84.01
2016-10-03T01:36:00.579Z,83.90
2016-10-03T01:36:22.287Z,83.96
2016-10-03T01:36:44.007Z,84.06
2016-10-03T01:37:05.716Z,83.99
2016-10-03T01:37:27.429Z,84.37
2016-10-03T01:37:49.148Z,84.64
2016-10-03T01:38:10.867Z,84.68
2016-10-03T01:38:32.667Z,84.55
2016-10-03T01:38:54.385Z,84.36
2016-10-03T01:39:16.109Z,84.04
2016-10-03T01:39:37.826Z,83.84
2016-10-03T01:39:59.538Z,83.67
2016-10-03T01:40:21.244Z,83.53
2016-10-03T01:40:47.730Z,83.52
2016-10-03T01:41:09.452Z,83.37
2016-10-03T01:41:31.169Z,83.65
2016-10-03T01:41:52.881Z,83.62
2016-10-03T01:42:14.600Z,83.60
2016-10-03T01:42:36.326Z,83.64
2016-10-03T01:42:58.036Z,83.84
2016-10-03T01:43:19.758Z,83.93
2016-10-03T01:43:41.470Z,83.77
2016-10-03T01:44:03.183Z,83.62
2016-10-03T01:44:24.910Z,83.56
2016-10-03T01:44:46.612Z,83.57
2016-10-03T01:45:08.333Z,83.62
2016-10-03T01:45:30.044Z,83.57
2016-10-03T01:45:51.761Z,83.42
2016-10-03T01:46:13.487Z,83.52
2016-10-03T01:46:35.201Z,83.32
2016-10-03T01:46:56.919Z,83.21
2016-10-03T01:47:18.628Z,82.95
2016-10-03T01:47:40.347Z,82.89
2016-10-03T01:48:02.056Z,82.98
2016-10-03T01:48:23.769Z,82.80
2016-10-03T01:48:45.482Z,82.78
2016-10-03T01:49:07.187Z,82.88
2016-10-03T01:49:28.896Z,82.67
2016-10-03T01:49:55.386Z,82.55
2016-10-03T01:50:17.104Z,82.40
2016-10-03T01:50:38.827Z,82.47
2016-10-03T01:51:00.540Z,82.47
2016-10-03T01:51:22.252Z,82.36
2016-10-03T01:51:43.995Z,82.19
2016-10-03T01:52:05.695Z,82.08
2016-10-03T01:52:27.420Z,82.06
2016-10-03T01:52:49.139Z,82.02
2016-10-03T01:53:10.848Z,82.17
2016-10-03T01:53:32.560Z,82.07
2016-10-03T01:53:54.274Z,82.43
2016-10-03T01:54:16.005Z,82.68
2016-10-03T01:54:37.707Z,82.64
2016-10-03T01:54:59.429Z,82.40
2016-10-03T01:55:21.148Z,82.34
2016-10-03T01:55:42.855Z,82.15
2016-10-03T01:56:04.562Z,82.00
2016-10-03T01:56:26.282Z,82.25
2016-10-03T01:56:47.998Z,82.15
2016-10-03T01:57:09.717Z,82.30
2016-10-03T01:57:31.427Z,82.10
2016-10-03T01:57:53.139Z,82.13
2016-10-03T01:58:14.849Z,81.94
2016-10-03T01:58:36.567Z,81.82
2016-10-03T01:58:58.296Z,81.72
2016-10-03T01:59:20.011Z,81.46
2016-10-03T01:59:41.725Z,81.36
2016-10-03T02:00:03.443Z,81.48
2016-10-03T02:00:25.160Z,81.75
2016-10-03T02:00:46.872Z,81.75
2016-10-03T02:01:08.575Z,81.75
2016-10-03T02:01:30.286Z,81.61
2016-10-03T02:01:51.997Z,81.75
2016-10-03T02:02:13.713Z,81.58
2016-10-03T02:02:35.424Z,81.63
2016-10-03T02:02:57.134Z,81.52
2016-10-03T02:03:18.857Z,81.42
2016-10-03T02:03:40.649Z,81.39
2016-10-03T02:04:02.363Z,81.38
2016-10-03T02:04:24.073Z,81.38
2016-10-03T02:04:45.800Z,81.43
2016-10-03T02:05:07.515Z,81.50
2016-10-03T02:05:29.229Z,81.60
2016-10-03T02:05:50.938Z,81.50
2016-10-03T02:06:12.656Z,81.45
2016-10-03T02:06:34.366Z,81.30
2016-10-03T02:06:56.090Z,81.27
2016-10-03T02:07:17.798Z,81.17
2016-10-03T02:07:40.528Z,81.55
2016-10-03T02:08:02.240Z,81.40
2016-10-03T02:08:23.962Z,81.19
2016-10-03T02:08:45.689Z,81.13
2016-10-03T02:09:07.398Z,81.07
2016-10-03T02:09:29.120Z,81.03
2016-10-03T02:09:50.839Z,80.94
2016-10-03T02:10:39.033Z,80.86
2016-10-03T02:11:00.763Z,80.79
2016-10-03T02:11:22.463Z,80.67
2016-10-03T02:11:44.174Z,80.56
2016-10-03T02:12:05.897Z,80.45
2016-10-03T02:12:27.612Z,80.32
2016-10-03T02:12:49.337Z,80.42
2016-10-03T02:13:11.050Z,80.36
2016-10-03T02:13:32.805Z,80.29
2016-10-03T02:13:54.529Z,80.46
2016-10-03T02:14:21.022Z,80.67
2016-10-03T02:14:42.752Z,80.78
2016-10-03T02:15:04.471Z,80.60
2016-10-03T02:15:26.191Z,80.30
2016-10-03T02:15:47.904Z,80.39
2016-10-03T02:16:09.618Z,80.33
2016-10-03T02:16:31.334Z,80.47
2016-10-03T02:16:53.046Z,80.41
2016-10-03T02:17:14.761Z,80.37
2016-10-03T02:17:36.487Z,80.49
2016-10-03T02:17:58.253Z,80.52
2016-10-03T02:18:19.980Z,80.58
2016-10-03T02:18:41.692Z,80.66
2016-10-03T02:19:03.411Z,80.61
2016-10-03T02:19:29.903Z,80.74
2016-10-03T02:19:51.613Z,80.82
2016-10-03T02:20:13.331Z,80.73
2016-10-03T02:20:35.045Z,80.45
2016-10-03T02:20:56.757Z,80.40
2016-10-03T02:21:18.472Z,80.19
2016-10-03T02:21:40.185Z,80.09
2016-10-03T02:22:01.898Z,80.02
2016-10-03T02:22:23.618Z,80.15
2016-10-03T02:22:45.335Z,80.28
2016-10-03T02:23:07.046Z,80.40
2016-10-03T02:23:28.755Z,80.48
2016-10-03T02:23:50.473Z,80.45
2016-10-03T02:24:12.194Z,80.50
2016-10-03T02:24:33.913Z,80.66
2016-10-03T02:24:55.612Z,80.69
2016-10-03T02:25:17.328Z,80.58
2016-10-03T02:25:39.049Z,80.39
2016-10-03T02:26:00.766Z,80.32
2016-10-03T02:26:22.489Z,80.49
2016-10-03T02:26:44.207Z,80.70
2016-10-03T02:27:05.922Z,80.87
2016-10-03T02:27:27.631Z,80.73
2016-10-03T02:27:49.353Z,80.72
2016-10-03T02:28:11.090Z,80.59
2016-10-03T02:28:32.779Z,80.69
2016-10-03T02:28:54.499Z,80.54
2016-10-03T02:29:16.209Z,80.60
2016-10-03T02:29:37.919Z,80.57
2016-10-03T02:29:59.642Z,80.57
2016-10-03T02:30:21.362Z,80.71
2016-10-03T02:30:43.083Z,80.87
2016-10-03T02:31:04.792Z,80.91
2016-10-03T02:31:26.501Z,80.74
2016-10-03T02:31:48.220Z,80.75
2016-10-03T02:32:09.941Z,80.59
2016-10-03T02:32:31.683Z,80.74
2016-10-03T02:32:53.380Z,80.71
2016-10-03T02:33:15.096Z,80.61
2016-10-03T02:33:36.808Z,80.46
2016-10-03T02:33:58.533Z,80.77
2016-10-03T02:34:20.248Z,80.70
2016-10-03T02:34:41.969Z,80.75
2016-10-03T02:35:08.456Z,80.66
2016-10-03T02:35:30.187Z,80.68
2016-10-03T02:35:51.912Z,80.60
2016-10-03T02:36:13.636Z,80.61
2016-10-03T02:36:35.359Z,80.75
2016-10-03T02:36:57.068Z,80.69
2016-10-03T02:37:18.782Z,80.58
2016-10-03T02:37:40.500Z,80.51
2016-10-03T02:38:02.210Z,80.67
2016-10-03T02:38:23.915Z,80.41
2016-10-03T02:38:45.627Z,80.38
2016-10-03T02:39:07.339Z,80.31
2016-10-03T02:39:29.057Z,80.53
2016-10-03T02:39:50.769Z,80.76
2016-10-03T02:40:12.487Z,80.63
2016-10-03T02:40:34.206Z,80.62
2016-10-03T02:40:55.914Z,80.74
2016-10-03T02:41:17.633Z,80.74
2016-10-03T02:41:39.351Z,80.58
2016-10-03T02:42:01.061Z,80.55
2016-10-03T02:42:22.797Z,80.57
2016-10-03T02:42:44.493Z,80.33
2016-10-03T02:43:06.229Z,80.27
2016-10-03T02:43:27.934Z,80.36
2016-10-03T02:43:49.657Z,80.51
2016-10-03T02:44:11.366Z,80.62
2016-10-03T02:44:33.080Z,80.51
2016-10-03T02:44:54.790Z,80.75
2016-10-03T02:45:17.505Z,80.85
2016-10-03T02:45:39.214Z,80.76
2016-10-03T02:46:01.963Z,80.69
2016-10-03T02:46:23.681Z,80.64
2016-10-03T02:46:45.395Z,80.79
2016-10-03T02:47:07.115Z,80.96
2016-10-03T02:47:28.829Z,80.88
2016-10-03T02:47:50.570Z,80.62
2016-10-03T02:48:12.291Z,80.72
2016-10-03T02:48:34.017Z,80.73
2016-10-03T02:48:55.744Z,80.83
2016-10-03T02:49:17.448Z,80.81
2016-10-03T02:49:39.166Z,80.75
2016-10-03T02:50:00.995Z,80.83
2016-10-03T02:50:22.718Z,80.92
2016-10-03T02:50:44.427Z,80.97
2016-10-03T02:51:06.137Z,80.94
2016-10-03T02:51:27.854Z,80.93
2016-10-03T02:51:49.575Z,81.03
2016-10-03T02:52:11.293Z,81.02
2016-10-03T02:52:33.017Z,80.96
2016-10-03T02:52:54.733Z,80.84
2016-10-03T02:53:21.230Z,80.84
2016-10-03T02:53:42.935Z,80.73
2016-10-03T02:54:04.651Z,80.63
2016-10-03T02:54:26.379Z,80.73
2016-10-03T02:54:48.085Z,80.81
2016-10-03T02:55:09.799Z,80.82
2016-10-03T02:55:31.508Z,80.99
2016-10-03T02:55:53.342Z,80.84
2016-10-03T02:56:15.078Z,80.71
2016-10-03T02:56:36.807Z,80.82
2016-10-03T02:56:58.529Z,80.74
2016-10-03T02:57:25.007Z,80.69
2016-10-03T02:57:46.725Z,80.77
2016-10-03T02:58:08.446Z,80.97
2016-10-03T02:58:30.164Z,80.72
2016-10-03T02:58:51.881Z,80.70
2016-10-03T02:59:13.591Z,81.02
2016-10-03T02:59:35.312Z,81.01
2016-10-03T02:59:57.033Z,80.99
2016-10-03T03:00:18.759Z,80.71
2016-10-03T03:00:40.472Z,80.76
2016-10-03T03:01:02.181Z,80.96
2016-10-03T03:01:24.033Z,80.86
2016-10-03T03:01:45.787Z,80.92
2016-10-03T03:02:07.509Z,80.90
2016-10-03T03:02:29.226Z,80.96
2016-10-03T03:02:50.941Z,80.88
2016-10-03T03:03:12.668Z,81.02
2016-10-03T03:03:34.388Z,80.97
2016-10-03T03:03:56.106Z,80.82
2016-10-03T03:04:17.817Z,80.99
2016-10-03T03:04:39.533Z,80.91
2016-10-03T03:05:01.352Z,80.78
2016-10-03T03:05:23.081Z,80.70
2016-10-03T03:05:49.568Z,80.70
2016-10-03T03:06:11.406Z,81.07
2016-10-03T03:06:33.120Z,81.33
2016-10-03T03:06:54.835Z,81.14
2016-10-03T03:07:16.554Z,81.14
2016-10-03T03:07:38.273Z,81.12
2016-10-03T03:07:59.980Z,81.17
2016-10-03T03:08:21.715Z,81.13
2016-10-03T03:08:43.432Z,81.11
2016-10-03T03:09:05.142Z,81.06
2016-10-03T03:09:26.865Z,80.97
2016-10-03T03:09:48.590Z,80.92
2016-10-03T03:10:10.304Z,81.03
2016-10-03T03:10:32.019Z,81.27
2016-10-03T03:10:53.732Z,81.12
2016-10-03T03:11:15.446Z,81.14
2016-10-03T03:11:37.161Z,81.13
2016-10-03T03:11:58.870Z,81.05
2016-10-03T03:12:20.595Z,81.03
2016-10-03T03:12:42.313Z,81.00
2016-10-03T03:13:04.060Z,81.00
2016-10-03T03:13:25.756Z,81.20
2016-10-03T03:13:47.474Z,81.01
2016-10-03T03:14:09.189Z,81.25
2016-10-03T03:14:30.911Z,81.11
2016-10-03T03:14:52.633Z,81.32
2016-10-03T03:15:14.348Z,81.43
2016-10-03T03:15:36.067Z,81.31
2016-10-03T03:15:57.775Z,81.03
2016-10-03T03:16:19.494Z,80.96
2016-10-03T03:16:41.203Z,80.81
2016-10-03T03:17:02.944Z,80.69
2016-10-03T03:17:24.690Z,80.79
2016-10-03T03:17:46.404Z,80.87
2016-10-03T03:18:08.116Z,80.78
2016-10-03T03:18:29.833Z,80.77
2016-10-03T03:18:51.547Z,80.68
2016-10-03T03:19:13.254Z,80.69
2016-10-03T03:19:34.990Z,80.88
2016-10-03T03:19:56.700Z,80.78
2016-10-03T03:20:18.412Z,80.71
2016-10-03T03:20:40.128Z,80.76
2016-10-03T03:21:01.849Z,80.79
2016-10-03T03:21:23.567Z,80.88
2016-10-03T03:21:45.277Z,80.97
2016-10-03T03:22:06.997Z,80.91
2016-10-03T03:22:28.707Z,80.78
2016-10-03T03:22:50.421Z,80.76
2016-10-03T03:23:12.166Z,80.64
2016-10-03T03:23:33.875Z,80.80
2016-10-03T03:23:55.584Z,80.81
2016-10-03T03:24:17.288Z,81.05
2016-10-03T03:24:38.998Z,81.13
2016-10-03T03:25:00.719Z,81.11
2016-10-03T03:25:22.437Z,81.03
2016-10-03T03:25:44.146Z,81.06
2016-10-03T03:26:05.859Z,80.96
2016-10-03T03:26:27.576Z,81.15
2016-10-03T03:26:49.283Z,81.13
2016-10-03T03:27:11.004Z,80.95
2016-10-03T03:27:32.725Z,81.02
2016-10-03T03:27:54.441Z,80.92
2016-10-03T03:28:16.152Z,80.95
2016-10-03T03:28:37.867Z,80.95
2016-10-03T03:28:59.587Z,80.91
2016-10-03T03:29:21.311Z,80.94
2016-10-03T03:29:43.025Z,80.90
2016-10-03T03:30:04.734Z,81.00
2016-10-03T03:30:26.460Z,81.13
2016-10-03T03:30:48.177Z,81.19
2016-10-03T03:31:09.888Z,81.22
2016-10-03T03:31:31.604Z,81.28
2016-10-03T03:31:53.327Z,81.16
2016-10-03T03:32:15.044Z,81.06
2016-10-03T03:32:36.758Z,80.89
2016-10-03T03:32:58.481Z,80.77
2016-10-03T03:33:20.191Z,80.78
2016-10-03T03:33:41.905Z,80.82
2016-10-03T03:34:03.615Z,80.72
2016-10-03T03:34:25.335Z,80.72
2016-10-03T03:34:47.045Z,80.65
2016-10-03T03:35:08.754Z,80.57
2016-10-03T03:35:30.600Z,80.83
2016-10-03T03:35:52.309Z,81.09
2016-10-03T03:36:14.027Z,81.02
2016-10-03T03:36:35.735Z,80.97
2016-10-03T03:36:57.464Z,80.72
2016-10-03T03:37:19.177Z,80.91
2016-10-03T03:37:40.893Z,80.81
2016-10-03T03:38:02.607Z,80.80
2016-10-03T03:38:24.318Z,80.83
2016-10-03T03:38:46.030Z,80.84
2016-10-03T03:39:07.745Z,80.94
2016-10-03T03:39:29.665Z,81.02
2016-10-03T03:39:51.381Z,80.98
2016-10-03T03:40:13.102Z,80.94
2016-10-03T03:40:34.944Z,80.79
2016-10-03T03:40:56.651Z,80.76
2016-10-03T03:41:18.369Z,81.21
2016-10-03T03:41:40.081Z,81.33
2016-10-03T03:42:01.790Z,81.10
2016-10-03T03:42:23.507Z,81.26
2016-10-03T03:42:45.223Z,81.17
2016-10-03T03:43:06.936Z,81.11
2016-10-03T03:43:28.660Z,81.11
2016-10-03T03:43:50.372Z,80.99
2016-10-03T03:44:12.089Z,81.07
2016-10-03T03:44:33.817Z,81.22
2016-10-03T03:44:55.525Z,81.25
2016-10-03T03:45:17.236Z,81.10
2016-10-03T03:45:38.952Z,81.06
2016-10-03T03:46:00.670Z,81.08
2016-10-03T03:46:22.410Z,81.07
2016-10-03T03:46:44.120Z,81.20
2016-10-03T03:47:05.838Z,81.20
2016-10-03T03:47:27.594Z,81.24
2016-10-03T03:47:49.311Z,81.12
2016-10-03T03:48:11.039Z,81.17
2016-10-03T03:48:32.759Z,81.05
2016-10-03T03:48:54.472Z,81.09
2016-10-03T03:49:16.180Z,81.15
2016-10-03T03:49:37.887Z,81.32
2016-10-03T03:49:59.625Z,81.36
2016-10-03T03:50:21.338Z,81.31
2016-10-03T03:50:43.055Z,81.15
2016-10-03T03:51:04.765Z,81.32
2016-10-03T03:51:26.493Z,81.39
2016-10-03T03:51:48.193Z,81.49
2016-10-03T03:52:09.953Z,81.56
2016-10-03T03:52:31.691Z,81.28
2016-10-03T03:52:53.393Z,81.28
2016-10-03T03:53:19.880Z,81.18
2016-10-03T03:53:41.613Z,81.10
2016-10-03T03:54:03.332Z,81.10
2016-10-03T03:54:25.061Z,81.10
2016-10-03T03:54:46.762Z,81.27
2016-10-03T03:55:08.472Z,81.38
2016-10-03T03:55:30.184Z,81.41
2016-10-03T03:55:51.901Z,81.39
2016-10-03T03:56:13.614Z,81.42
2016-10-03T03:56:35.318Z,81.52
2016-10-03T03:56:57.028Z,81.55
2016-10-03T03:57:18.751Z,81.62
2016-10-03T03:57:40.483Z,81.40
2016-10-03T03:58:02.191Z,81.38
2016-10-03T03:58:23.902Z,81.45
2016-10-03T03:58:45.617Z,81.40
2016-10-03T03:59:07.330Z,81.33
2016-10-03T03:59:29.047Z,81.41
2016-10-03T03:59:50.764Z,81.42
2016-10-03T04:00:12.491Z,81.42
2016-10-03T04:00:34.204Z,81.33
2016-10-03T04:00:55.932Z,81.38
2016-10-03T04:01:17.644Z,81.42
2016-10-03T04:01:39.362Z,81.47
2016-10-03T04:02:01.083Z,81.34
2016-10-03T04:02:22.793Z,81.42
2016-10-03T04:02:44.510Z,81.34
2016-10-03T04:03:06.222Z,81.30
2016-10-03T04:03:27.937Z,81.23
2016-10-03T04:03:49.640Z,81.41
2016-10-03T04:04:11.356Z,81.62
2016-10-03T04:04:33.075Z,81.54
2016-10-03T04:04:54.818Z,81.49
2016-10-03T04:05:16.546Z,81.57
2016-10-03T04:05:38.263Z,81.47
2016-10-03T04:05:59.977Z,81.39
2016-10-03T04:06:21.707Z,81.25
2016-10-03T04:06:43.422Z,80.98
2016-10-03T04:07:05.147Z,80.86
2016-10-03T04:07:26.860Z,80.78
2016-10-03T04:07:48.569Z,80.67
2016-10-03T04:08:10.282Z,80.85
2016-10-03T04:08:31.995Z,80.98
2016-10-03T04:08:53.703Z,81.22
2016-10-03T04:09:15.414Z,81.38
2016-10-03T04:09:37.209Z,81.45
2016-10-03T04:09:58.933Z,81.33
2016-10-03T04:10:20.648Z,81.42
2016-10-03T04:10:42.371Z,81.45
2016-10-03T04:11:04.085Z,81.46
2016-10-03T04:11:25.801Z,81.31
2016-10-03T04:11:47.514Z,81.70
2016-10-03T04:12:09.230Z,81.85
2016-10-03T04:12:30.947Z,81.89
2016-10-03T04:12:52.652Z,81.96
2016-10-03T04:13:14.360Z,82.06
2016-10-03T04:13:36.081Z,81.91
2016-10-03T04:13:57.807Z,81.67
2016-10-03T04:14:19.515Z,81.41
2016-10-03T04:14:41.238Z,81.31
2016-10-03T04:15:02.953Z,81.38
2016-10-03T04:15:24.674Z,81.32
2016-10-03T04:15:46.393Z,81.25
2016-10-03T04:16:08.108Z,81.20
2016-10-03T04:16:29.847Z,81.37
2016-10-03T04:16:51.559Z,81.69
2016-10-03T04:17:13.284Z,81.61
2016-10-03T04:17:35.000Z,81.71
2016-10-03T04:18:01.490Z,81.59
2016-10-03T04:18:23.221Z,81.58
2016-10-03T04:18:44.965Z,81.51
2016-10-03T04:19:06.659Z,81.53
2016-10-03T04:19:28.370Z,81.50
2016-10-03T04:19:50.086Z,81.55
2016-10-03T04:20:11.800Z,81.68
2016-10-03T04:20:33.517Z,81.91
2016-10-03T04:20:55.237Z,81.60
2016-10-03T04:21:16.951Z,81.58
2016-10-03T04:21:38.666Z,81.50
2016-10-03T04:22:00.382Z,81.77
2016-10-03T04:22:22.096Z,81.53
2016-10-03T04:22:43.809Z,81.36
2016-10-03T04:23:05.524Z,81.26
2016-10-03T04:23:27.234Z,81.08
2016-10-03T04:23:48.946Z,81.10
2016-10-03T04:24:10.658Z,81.09
2016-10-03T04:24:32.369Z,81.26
2016-10-03T04:24:54.076Z,81.38
2016-10-03T04:25:15.790Z,81.28
2016-10-03T04:25:37.509Z,81.39
2016-10-03T04:25:59.225Z,81.60
2016-10-03T04:26:20.943Z,81.54
2016-10-03T04:26:42.667Z,81.50
2016-10-03T04:27:04.398Z,81.57
2016-10-03T04:27:26.125Z,81.58
2016-10-03T04:27:47.833Z,81.50
2016-10-03T04:28:09.548Z,81.62
2016-10-03T04:28:31.260Z,81.43
2016-10-03T04:28:52.971Z,81.48
2016-10-03T04:29:14.689Z,81.52
2016-10-03T04:29:36.398Z,81.57
2016-10-03T04:29:58.116Z,81.52
2016-10-03T04:30:19.824Z,81.51
2016-10-03T04:30:41.549Z,81.71
2016-10-03T04:31:03.264Z,81.63
2016-10-03T04:31:24.983Z,81.61
2016-10-03T04:31:46.698Z,81.91
2016-10-03T04:32:34.903Z,81.74
2016-10-03T04:32:56.634Z,81.84
2016-10-03T04:33:18.362Z,81.40
2016-10-03T04:33:40.083Z,81.53
2016-10-03T04:34:01.801Z,81.76
2016-10-03T04:34:23.518Z,81.51
2016-10-03T04:34:45.239Z,81.60
2016-10-03T04:35:06.948Z,81.81
2016-10-03T04:35:28.676Z,82.03
2016-10-03T04:35:50.391Z,82.10
2016-10-03T04:36:12.105Z,81.93
2016-10-03T04:36:33.819Z,81.73
2016-10-03T04:36:55.531Z,81.73
2016-10-03T04:37:17.245Z,81.86
2016-10-03T04:37:38.960Z,81.78
2016-10-03T04:38:00.682Z,81.77
2016-10-03T04:38:22.398Z,81.73
2016-10-03T04:38:44.110Z,81.84
2016-10-03T04:39:05.825Z,81.89
2016-10-03T04:39:27.553Z,81.79
2016-10-03T04:39:49.261Z,81.76
2016-10-03T04:40:10.976Z,81.82
2016-10-03T04:40:32.697Z,81.69
2016-10-03T04:40:54.417Z,81.45
2016-10-03T04:41:16.135Z,81.42
2016-10-03T04:41:37.852Z,81.63
2016-10-03T04:41:59.568Z,81.61
2016-10-03T04:42:21.290Z,81.56
2016-10-03T04:42:43.000Z,81.80